ETSI 210120Z AUTO 04002KT 9999 // ////// 11/08 Q1024 /// ETSI 210020Z AUTO 02003KT 9999 // ////// 11/08 Q1023 /// ETSI 202320Z AUTO 04002KT 9999 // ////// 11/08 Q1023 /// ETSI 202220Z AUTO 14003KT 9999 // ////// 11/08 Q1023 /// ETSI 202120Z AUTO 04002KT 9999 // ////// 12/08 Q1023 /// ETSI 202020Z 07001KT 9999 BKN050 12/07 Q1022 BLU ETSI 201920Z VRB01KT 9999 BKN050 12/07 Q1022 BLU ETSI 201820Z AUTO 09003KT 9999 // ////// 13/07 Q1022 /// ETSI 201720Z AUTO 09004KT 9999 // ////// 13/07 Q1021 /// ETSI 201620Z 04002KT 9999 FEW035 BKN050 14/07 Q1020 BLU ETSI 201520Z 04003KT 9999 FEW035 BKN050 15/06 Q1020 BLU ETSI 201420Z 01002KT 9999 FEW035 BKN050 15/06 Q1020 BLU FCST CNL ETSI 201320Z 34003KT 9999 FEW032 BKN050 14/06 Q1020 BLU BLU ETSI 201220Z 05004KT 9999 FEW030 BKN047 14/06 Q1019 BLU BLU ETSI 201120Z 10004KT 9999 FEW028 BKN045 13/07 Q1019 BLU BLU ETSI 201020Z 08005KT 9999 FEW025 BKN045 12/06 Q1019 BLU BLU ETSI 200920Z 08004KT 9999 FEW020 BKN035 12/07 Q1019 BLU BLU ETSI 200820Z 07005KT 9999 FEW020 BKN044 11/07 Q1019 BLU BLU ETSI 200720Z 06004KT 9999 BKN042 11/07 Q1018 BLU BLU ETSI 200620Z 08004KT 9999 FEW030 BKN040 11/07 Q1018 BLU BLU ETSI 200520Z 08003KT 9999 FEW012 SCT030 BKN040 10/07 Q1018 BLU BLU ETSI 200420Z 05004KT 9999 FEW028 BKN040 11/08 Q1017 BLU BLU ETSI 200320Z 00000KT 9999 BKN038 11/08 Q1017 BLU ETSI 200220Z AUTO 00000KT 9999 // ////// 11/08 Q1017 /// ETSI 200120Z AUTO 01002KT 9999 // ////// 11/08 Q1017 /// ETSI 200020Z AUTO 03002KT 9999 // ////// 11/08 Q1017 /// ETSI 192320Z AUTO 08002KT 9999 // ////// 11/08 Q1016 /// ETSI 192220Z AUTO VRB02KT 9999 // ////// 11/08 Q1016 /// ETSI 192120Z AUTO 09005KT 9999 // ////// 11/09 Q1016 /// ETSI 192020Z AUTO 07004KT 9999 // ////// 11/08 Q1016 /// ETSI 191920Z AUTO 05005KT 9999 // ////// 13/08 Q1015 /// ETSI 191820Z AUTO 04006KT 9999 // ////// 14/09 Q1014 /// ETSI 191720Z AUTO 06008KT 9999 // ////// 15/09 Q1014 /// ETSI 191620Z 06009KT 9999 FEW028 BKN060 16/10 Q1013 BLU ETSI 191552Z 07010KT 9999 FEW028 BKN060 17/10 Q1013 BLU ETSI 191520Z AUTO 07011KT 9999 // ////// 17/10 Q1013 /// ETSI 191420Z AUTO 06008KT 9999 // ////// 18/10 Q1013 ///

METAR Messwerte

Zurück zur Übersicht

Ort
m ü. NN
Zeit Temperatur Taupunkt Rel.
Luftfeuchte
Luftdruck:
Altimeter
NN
Station
Wind in Beaufort
(Knoten)
Sichtweite
(Meter)
Wolken
(Meter über Grund)
Wettererscheinung
Ingolstadt
370
Di 21.09. 03:2011882 %1024
1025
980
NO 1 (2)>= 10000  
Ingolstadt
370
Di 21.09. 02:2011882 %1023
1024
979
NNO 2 (3)>= 10000  
Ingolstadt
370
Di 21.09. 01:2011882 %1023
1024
979
NO 1 (2)>= 10000  
Ingolstadt
370
Di 21.09. 00:2011882 %1023
1024
979
SO 2 (3)>= 10000  
Ingolstadt
370
Mo 20.09. 23:2012876 %1023
1024
979
NO 1 (2)>= 10000  
Ingolstadt
370
Mo 20.09. 22:2012771 %1022
1023
978
ONO 1 (1)>= 10000Stark bewölkt (1500) 
Ingolstadt
370
Mo 20.09. 21:2012771 %1022
1023
978
Uml 1 (1)>= 10000Stark bewölkt (1500) 
Ingolstadt
370
Mo 20.09. 20:2013767 %1022
1022
978
O 2 (3)>= 10000  
Ingolstadt
370
Mo 20.09. 19:2013767 %1021
1021
977
O 2 (4)>= 10000  
Ingolstadt
370
Mo 20.09. 18:2014763 %1020
1020
976
NO 1 (2)>= 10000Stark bewölkt (1500)
Leicht bewölkt (1100)
 
Ingolstadt
370
Mo 20.09. 17:2015655 %1020
1020
976
NO 2 (3)>= 10000Stark bewölkt (1500)
Leicht bewölkt (1100)
 
Ingolstadt
370
Mo 20.09. 16:2015655 %1020
1020
976
N 1 (2)>= 10000Stark bewölkt (1500)
Leicht bewölkt (1100)
 
Ingolstadt
370
Mo 20.09. 15:2014658 %1020
1020
976
NNW 2 (3)>= 10000Stark bewölkt (1500)
Leicht bewölkt (980)
 
Ingolstadt
370
Mo 20.09. 14:2014658 %1019
1019
975
NO 2 (4)>= 10000Stark bewölkt (1400)
Leicht bewölkt (910)
 
Ingolstadt
370
Mo 20.09. 13:2013767 %1019
1019
975
O 2 (4)>= 10000Stark bewölkt (1400)
Leicht bewölkt (850)
 
Ingolstadt
370
Mo 20.09. 12:2012667 %1019
1020
975
O 2 (5)>= 10000Stark bewölkt (1400)
Leicht bewölkt (760)
 
Ingolstadt
370
Mo 20.09. 11:2012771 %1019
1020
975
O 2 (4)>= 10000Stark bewölkt (1100)
Leicht bewölkt (610)
 
Ingolstadt
370
Mo 20.09. 10:2011776 %1019
1020
975
ONO 2 (5)>= 10000Stark bewölkt (1300)
Leicht bewölkt (610)
 
Ingolstadt
370
Mo 20.09. 09:2011776 %1018
1019
974
ONO 2 (4)>= 10000Stark bewölkt (1300) 
Ingolstadt
370
Mo 20.09. 08:2011776 %1018
1019
974
O 2 (4)>= 10000Stark bewölkt (1200)
Leicht bewölkt (910)
 
Ingolstadt
370
Mo 20.09. 07:2010782 %1018
1019
974
O 2 (3)>= 10000Stark bewölkt (1200)
Wolkig (910)
Leicht bewölkt (370)
 
Ingolstadt
370
Mo 20.09. 06:2011882 %1017
1018
973
NO 2 (4)>= 10000Stark bewölkt (1200)
Leicht bewölkt (850)
 
Ingolstadt
370
Mo 20.09. 05:2011882 %1017
1018
973
Windstill>= 10000Stark bewölkt (1200) 
Ingolstadt
370
Mo 20.09. 04:2011882 %1017
1018
973
Windstill>= 10000  
Ingolstadt
370
Mo 20.09. 03:2011882 %1017
1018
973
N 1 (2)>= 10000  
Ingolstadt
370
Mo 20.09. 02:2011882 %1017
1018
973
NNO 1 (2)>= 10000  
Ingolstadt
370
Mo 20.09. 01:2011882 %1016
1017
972
O 1 (2)>= 10000  
Ingolstadt
370
Mo 20.09. 00:2011882 %1016
1017
972
Uml 1 (2)>= 10000  
Ingolstadt
370
So 19.09. 23:2011987 %1016
1017
972
O 2 (5)>= 10000  
Ingolstadt
370
So 19.09. 22:2011882 %1016
1017
972
ONO 2 (4)>= 10000  
Ingolstadt
370
So 19.09. 21:2013872 %1015
1015
971
NO 2 (5)>= 10000  
Ingolstadt
370
So 19.09. 20:2014972 %1014
1014
970
NO 2 (6)>= 10000  
Ingolstadt
370
So 19.09. 19:2015967 %1014
1014
970
ONO 3 (8)>= 10000  
Ingolstadt
370
So 19.09. 18:20161068 %1013
1013
969
ONO 3 (9)>= 10000Stark bewölkt (1800)
Leicht bewölkt (850)
 
Ingolstadt
370
So 19.09. 17:52171063 %1013
1013
969
ONO 3 (10)>= 10000Stark bewölkt (1800)
Leicht bewölkt (850)
 
Ingolstadt
370
So 19.09. 17:20171063 %1013
1013
969
ONO 4 (11)>= 10000  
Ingolstadt
370
So 19.09. 16:20181059 %1013
1013
969
ONO 3 (8)>= 10000  

Altimeter: Einstellung am Altimeter (Höhenmesser), die Höhe 0 muss auf diesen Luftdruckwert zeigen, damit das Gerät die Stationshöhe richtig anzeigt.

NN: Luftdruck reduziert auf "Normal Null", auf Meereshöhe, dieser von der Temperatur abhängige Wert wird bisweilen unkorrekt einfach als "Luftdruck" bezeichnet. Eigentlich nur eine fiktive Größe, die es erlaubt, Stationen auf unterschiedlichen Höhen miteinander zu vergleichen.

Station: Realer Luftdruck an der Station.